Messwerte Santa Cruz

Temperatur

Temperatur
°C
1594094400 1.00 1.00 21
1594098000 2.00 2.00 20
1594101600 3.00 3.00
1594105200 4.00 4.00 19
1594108800 5.00 5.00 20
1594112400 6.00 6.00
1594116000 7.00 7.00
1594119600 8.00 8.00 21
1594123200 9.00 9.00 24
1594126800 10.00 10.00 25
1594130400 11.00 11.00 27
1594134000 12.00 12.00
1594137600 13.00 13.00 30
1594141200 14.00 14.00 31
1594144800 15.00 15.00
1594148400 16.00 16.00 30
1594152000 17.00 17.00 28
1594155600 18.00 18.00 25
1594159200 19.00 19.00 25
1594162800 20.00 20.00 22
1594166400 21.00 21.00 21
1594170000 22.00 22.00 20
1594173600 23.00 23.00 18
1594177200 0.00 0.00 21

Aktuellste Messwerte

Wettercharakter
Wetter: meist klar
Temperatur
21 °C
Feuchtigkeit
70 %
Wind
5 km/hWindrichtung: Nordost
Luftdruck
1013 hPa
Messzeit: 8. Juli 2020, 0.00Datenquelle: METAR

Weitere Messstationen in der Nähe

Messstation Temperatur Entfernung
Rio de Janeiro 20 °C 44 km
Rio de Janeiro - 53 km
Guaratingueta - 156 km
S.P. Aldeia - 162 km
São José dos Campos 16 °C 227 km
Campos - 268 km
Guarulhos 16 °C 294 km

Wind

Windrichtung Böen Mittelwind
° km/h km/h
1594094400 1.00 0.00 - 1.00 280° 5
1594098000 2.00 1.00 - 2.00 10° 5
1594101600 3.00 2.00 - 3.00
1594105200 4.00 3.00 - 4.00 350° 10
1594108800 5.00 4.00 - 5.00 350° 5
1594112400 6.00 5.00 - 6.00
1594116000 7.00 6.00 - 7.00
1594119600 8.00 7.00 - 8.00 10° 10
1594123200 9.00 8.00 - 9.00 10° 15
1594126800 10.00 9.00 - 10.00 10° 15
1594130400 11.00 10.00 - 11.00 30° 10
1594134000 12.00 11.00 - 12.00
1594137600 13.00 12.00 - 13.00 40° 10
1594141200 14.00 13.00 - 14.00 20° 20
1594144800 15.00 14.00 - 15.00
1594148400 16.00 15.00 - 16.00 40° 20
1594152000 17.00 16.00 - 17.00 50° 20
1594155600 18.00 17.00 - 18.00 50° 10
1594159200 19.00 18.00 - 19.00 40° 15
1594162800 20.00 19.00 - 20.00 360° 10
1594166400 21.00 20.00 - 21.00 350° 10
1594170000 22.00 21.00 - 22.00 20° 5
1594173600 23.00 22.00 - 23.00 180° 5
1594177200 0.00 23.00 - 0.00 40° 5

Ihre Wetterstation

Fehlt Ihre Wetterstation auf unserem Portal?

Schreiben Sie an network@meteonews.ch